sensor_id;sensor_type;location;lat;lon;timestamp;P1;durP1;ratioP1;P2;durP2;ratioP2
47715;SDS011;33476;50.984;3.538;2023-03-29T00:02:23;2.10;;;1.00;;
47715;SDS011;33476;50.984;3.538;2023-03-29T00:04:56;4.47;;;1.33;;
47715;SDS011;33476;50.984;3.538;2023-03-29T00:07:21;2.15;;;0.82;;
47715;SDS011;33476;50.984;3.538;2023-03-29T00:09:47;3.03;;;1.00;;
47715;SDS011;33476;50.984;3.538;2023-03-29T00:12:13;3.38;;;0.80;;
47715;SDS011;33476;50.984;3.538;2023-03-29T00:14:38;3.78;;;1.25;;
47715;SDS011;33476;50.984;3.538;2023-03-29T00:17:04;4.88;;;1.25;;
47715;SDS011;33476;50.984;3.538;2023-03-29T00:19:30;2.78;;;1.05;;
47715;SDS011;33476;50.984;3.538;2023-03-29T00:21:59;1.92;;;0.88;;
47715;SDS011;33476;50.984;3.538;2023-03-29T00:24:25;1.67;;;0.60;;
47715;SDS011;33476;50.984;3.538;2023-03-29T00:26:51;3.83;;;0.90;;
47715;SDS011;33476;50.984;3.538;2023-03-29T00:29:16;4.95;;;1.27;;
47715;SDS011;33476;50.984;3.538;2023-03-29T00:31:41;3.42;;;1.00;;
47715;SDS011;33476;50.984;3.538;2023-03-29T00:34:09;2.95;;;1.00;;
47715;SDS011;33476;50.984;3.538;2023-03-29T00:36:35;4.82;;;1.17;;
47715;SDS011;33476;50.984;3.538;2023-03-29T00:39:01;3.38;;;1.10;;
47715;SDS011;33476;50.984;3.538;2023-03-29T00:41:26;2.95;;;0.93;;
47715;SDS011;33476;50.984;3.538;2023-03-29T00:43:58;1.63;;;0.93;;
47715;SDS011;33476;50.984;3.538;2023-03-29T00:46:29;3.22;;;1.02;;
47715;SDS011;33476;50.984;3.538;2023-03-29T00:49:05;3.25;;;0.95;;
47715;SDS011;33476;50.984;3.538;2023-03-29T00:51:36;2.65;;;0.95;;
47715;SDS011;33476;50.984;3.538;2023-03-29T00:54:05;2.10;;;0.80;;
47715;SDS011;33476;50.984;3.538;2023-03-29T00:56:38;1.88;;;0.75;;
47715;SDS011;33476;50.984;3.538;2023-03-29T00:59:06;5.40;;;0.75;;
47715;SDS011;33476;50.984;3.538;2023-03-29T01:04:22;2.67;;;0.70;;
47715;SDS011;33476;50.984;3.538;2023-03-29T01:07:14;2.58;;;0.90;;
47715;SDS011;33476;50.984;3.538;2023-03-29T01:09:57;4.13;;;1.15;;
47715;SDS011;33476;50.984;3.538;2023-03-29T01:12:36;1.20;;;0.60;;
47715;SDS011;33476;50.984;3.538;2023-03-29T01:15:08;3.25;;;0.85;;
47715;SDS011;33476;50.984;3.538;2023-03-29T01:17:39;7.32;;;0.90;;
47715;SDS011;33476;50.984;3.538;2023-03-29T01:28:56;5.38;;;1.33;;
47715;SDS011;33476;50.984;3.538;2023-03-29T01:31:33;2.92;;;1.33;;
47715;SDS011;33476;50.984;3.538;2023-03-29T01:34:14;4.32;;;0.90;;
47715;SDS011;33476;50.984;3.538;2023-03-29T01:36:54;2.55;;;1.02;;
47715;SDS011;33476;50.984;3.538;2023-03-29T01:39:24;3.15;;;1.42;;
47715;SDS011;33476;50.984;3.538;2023-03-29T01:47:26;3.33;;;0.90;;
47715;SDS011;33476;50.984;3.538;2023-03-29T01:50:46;3.08;;;0.90;;
47715;SDS011;33476;50.984;3.538;2023-03-29T01:53:24;2.30;;;0.70;;
47715;SDS011;33476;50.984;3.538;2023-03-29T01:55:54;3.28;;;0.80;;
47715;SDS011;33476;50.984;3.538;2023-03-29T01:58:24;3.80;;;1.02;;
47715;SDS011;33476;50.984;3.538;2023-03-29T02:00:53;1.55;;;0.63;;
47715;SDS011;33476;50.984;3.538;2023-03-29T02:03:19;4.82;;;0.85;;
47715;SDS011;33476;50.984;3.538;2023-03-29T02:05:48;6.90;;;1.45;;
47715;SDS011;33476;50.984;3.538;2023-03-29T02:08:14;7.00;;;1.10;;
47715;SDS011;33476;50.984;3.538;2023-03-29T02:10:41;3.80;;;0.90;;
47715;SDS011;33476;50.984;3.538;2023-03-29T02:13:08;1.77;;;0.70;;
47715;SDS011;33476;50.984;3.538;2023-03-29T02:15:34;2.83;;;0.70;;
47715;SDS011;33476;50.984;3.538;2023-03-29T02:17:59;6.80;;;1.10;;
47715;SDS011;33476;50.984;3.538;2023-03-29T02:20:26;5.18;;;1.08;;
47715;SDS011;33476;50.984;3.538;2023-03-29T02:25:26;5.50;;;1.30;;
47715;SDS011;33476;50.984;3.538;2023-03-29T02:27:52;3.00;;;0.55;;
47715;SDS011;33476;50.984;3.538;2023-03-29T02:30:18;2.95;;;0.68;;
47715;SDS011;33476;50.984;3.538;2023-03-29T02:32:59;4.80;;;0.68;;
47715;SDS011;33476;50.984;3.538;2023-03-29T02:35:33;2.05;;;0.95;;
47715;SDS011;33476;50.984;3.538;2023-03-29T02:38:06;1.50;;;0.50;;
47715;SDS011;33476;50.984;3.538;2023-03-29T02:40:34;1.88;;;0.88;;
47715;SDS011;33476;50.984;3.538;2023-03-29T02:43:01;1.65;;;0.68;;
47715;SDS011;33476;50.984;3.538;2023-03-29T02:45:27;3.40;;;0.75;;
47715;SDS011;33476;50.984;3.538;2023-03-29T02:47:55;3.72;;;0.77;;
47715;SDS011;33476;50.984;3.538;2023-03-29T02:50:24;3.80;;;1.15;;
47715;SDS011;33476;50.984;3.538;2023-03-29T02:52:56;3.67;;;1.08;;
47715;SDS011;33476;50.984;3.538;2023-03-29T02:55:26;5.80;;;0.93;;
47715;SDS011;33476;50.984;3.538;2023-03-29T02:57:58;3.05;;;0.60;;
47715;SDS011;33476;50.984;3.538;2023-03-29T03:00:30;3.83;;;0.82;;
47715;SDS011;33476;50.984;3.538;2023-03-29T03:02:56;2.90;;;0.60;;
47715;SDS011;33476;50.984;3.538;2023-03-29T03:05:21;2.05;;;1.10;;
47715;SDS011;33476;50.984;3.538;2023-03-29T03:07:47;3.17;;;0.82;;
47715;SDS011;33476;50.984;3.538;2023-03-29T03:10:13;2.13;;;0.68;;
47715;SDS011;33476;50.984;3.538;2023-03-29T03:12:38;4.88;;;1.35;;
47715;SDS011;33476;50.984;3.538;2023-03-29T03:15:04;1.40;;;0.55;;
47715;SDS011;33476;50.984;3.538;2023-03-29T03:17:30;4.43;;;0.90;;
47715;SDS011;33476;50.984;3.538;2023-03-29T03:19:57;6.45;;;0.88;;
47715;SDS011;33476;50.984;3.538;2023-03-29T03:22:23;3.03;;;1.02;;
47715;SDS011;33476;50.984;3.538;2023-03-29T03:24:48;3.33;;;0.77;;
47715;SDS011;33476;50.984;3.538;2023-03-29T03:27:14;3.08;;;1.13;;
47715;SDS011;33476;50.984;3.538;2023-03-29T03:29:40;1.90;;;0.90;;
47715;SDS011;33476;50.984;3.538;2023-03-29T03:32:06;2.55;;;1.35;;
47715;SDS011;33476;50.984;3.538;2023-03-29T03:34:31;4.05;;;0.70;;
47715;SDS011;33476;50.984;3.538;2023-03-29T03:36:58;3.42;;;1.05;;
47715;SDS011;33476;50.984;3.538;2023-03-29T03:39:25;3.03;;;0.90;;
47715;SDS011;33476;50.984;3.538;2023-03-29T03:41:51;7.70;;;1.65;;
47715;SDS011;33476;50.984;3.538;2023-03-29T03:44:17;6.80;;;1.25;;
47715;SDS011;33476;50.984;3.538;2023-03-29T03:46:42;3.47;;;1.25;;
47715;SDS011;33476;50.984;3.538;2023-03-29T03:49:08;6.05;;;1.40;;
47715;SDS011;33476;50.984;3.538;2023-03-29T03:51:33;3.63;;;1.15;;
47715;SDS011;33476;50.984;3.538;2023-03-29T03:53:58;5.20;;;1.35;;
47715;SDS011;33476;50.984;3.538;2023-03-29T03:56:23;5.25;;;1.65;;
47715;SDS011;33476;50.984;3.538;2023-03-29T03:58:49;3.78;;;1.48;;
47715;SDS011;33476;50.984;3.538;2023-03-29T04:01:15;3.17;;;1.30;;
47715;SDS011;33476;50.984;3.538;2023-03-29T04:03:41;3.45;;;1.33;;
47715;SDS011;33476;50.984;3.538;2023-03-29T04:06:06;6.28;;;1.35;;
47715;SDS011;33476;50.984;3.538;2023-03-29T04:08:31;2.53;;;1.38;;
47715;SDS011;33476;50.984;3.538;2023-03-29T04:10:57;3.80;;;1.70;;
47715;SDS011;33476;50.984;3.538;2023-03-29T04:13:23;3.47;;;1.30;;
47715;SDS011;33476;50.984;3.538;2023-03-29T04:15:50;3.00;;;1.40;;
47715;SDS011;33476;50.984;3.538;2023-03-29T04:18:18;4.63;;;1.08;;
47715;SDS011;33476;50.984;3.538;2023-03-29T04:20:44;3.38;;;1.23;;
47715;SDS011;33476;50.984;3.538;2023-03-29T04:23:11;4.22;;;1.17;;
47715;SDS011;33476;50.984;3.538;2023-03-29T04:25:37;3.88;;;1.33;;
47715;SDS011;33476;50.984;3.538;2023-03-29T04:28:02;4.45;;;1.20;;
47715;SDS011;33476;50.984;3.538;2023-03-29T04:30:28;3.28;;;1.40;;
47715;SDS011;33476;50.984;3.538;2023-03-29T04:32:53;2.58;;;0.80;;
47715;SDS011;33476;50.984;3.538;2023-03-29T04:35:19;3.50;;;1.27;;
47715;SDS011;33476;50.984;3.538;2023-03-29T04:37:44;5.72;;;1.50;;
47715;SDS011;33476;50.984;3.538;2023-03-29T04:40:09;4.90;;;1.42;;
47715;SDS011;33476;50.984;3.538;2023-03-29T04:42:41;4.72;;;1.55;;
47715;SDS011;33476;50.984;3.538;2023-03-29T04:45:08;2.33;;;1.00;;
47715;SDS011;33476;50.984;3.538;2023-03-29T04:47:34;4.40;;;1.33;;
47715;SDS011;33476;50.984;3.538;2023-03-29T04:50:00;3.72;;;1.08;;
47715;SDS011;33476;50.984;3.538;2023-03-29T04:52:26;7.20;;;1.33;;
47715;SDS011;33476;50.984;3.538;2023-03-29T04:54:51;8.02;;;1.90;;
47715;SDS011;33476;50.984;3.538;2023-03-29T04:57:17;5.22;;;1.27;;
47715;SDS011;33476;50.984;3.538;2023-03-29T04:59:42;7.45;;;1.90;;
47715;SDS011;33476;50.984;3.538;2023-03-29T05:02:08;2.60;;;1.42;;
47715;SDS011;33476;50.984;3.538;2023-03-29T05:04:33;6.35;;;1.38;;
47715;SDS011;33476;50.984;3.538;2023-03-29T05:07:00;4.63;;;1.70;;
47715;SDS011;33476;50.984;3.538;2023-03-29T05:09:26;3.10;;;1.13;;
47715;SDS011;33476;50.984;3.538;2023-03-29T05:11:52;3.97;;;1.20;;
47715;SDS011;33476;50.984;3.538;2023-03-29T05:14:17;2.85;;;1.00;;
47715;SDS011;33476;50.984;3.538;2023-03-29T05:16:42;2.78;;;1.25;;
47715;SDS011;33476;50.984;3.538;2023-03-29T05:19:08;4.15;;;1.30;;
47715;SDS011;33476;50.984;3.538;2023-03-29T05:21:33;5.47;;;1.33;;
47715;SDS011;33476;50.984;3.538;2023-03-29T05:23:59;4.68;;;1.65;;
47715;SDS011;33476;50.984;3.538;2023-03-29T05:26:25;4.03;;;1.27;;
47715;SDS011;33476;50.984;3.538;2023-03-29T05:28:50;3.75;;;1.17;;
47715;SDS011;33476;50.984;3.538;2023-03-29T05:31:16;4.13;;;1.05;;
47715;SDS011;33476;50.984;3.538;2023-03-29T05:33:42;4.35;;;1.30;;
47715;SDS011;33476;50.984;3.538;2023-03-29T05:36:08;6.95;;;1.52;;
47715;SDS011;33476;50.984;3.538;2023-03-29T05:38:37;2.90;;;1.17;;
47715;SDS011;33476;50.984;3.538;2023-03-29T05:41:03;3.75;;;1.50;;
47715;SDS011;33476;50.984;3.538;2023-03-29T05:43:30;4.07;;;1.27;;
47715;SDS011;33476;50.984;3.538;2023-03-29T05:45:56;3.60;;;1.48;;
47715;SDS011;33476;50.984;3.538;2023-03-29T05:48:21;8.95;;;1.80;;
47715;SDS011;33476;50.984;3.538;2023-03-29T05:50:50;5.43;;;1.60;;
47715;SDS011;33476;50.984;3.538;2023-03-29T05:53:18;10.40;;;1.63;;
47715;SDS011;33476;50.984;3.538;2023-03-29T05:55:46;4.20;;;1.08;;
47715;SDS011;33476;50.984;3.538;2023-03-29T05:58:11;4.25;;;1.40;;
47715;SDS011;33476;50.984;3.538;2023-03-29T06:00:38;2.65;;;1.45;;
47715;SDS011;33476;50.984;3.538;2023-03-29T06:03:05;4.15;;;1.60;;
47715;SDS011;33476;50.984;3.538;2023-03-29T06:05:32;5.47;;;1.23;;
47715;SDS011;33476;50.984;3.538;2023-03-29T06:07:58;3.95;;;1.20;;
47715;SDS011;33476;50.984;3.538;2023-03-29T06:10:24;3.28;;;1.17;;
47715;SDS011;33476;50.984;3.538;2023-03-29T06:12:50;3.85;;;1.00;;
47715;SDS011;33476;50.984;3.538;2023-03-29T06:15:16;3.50;;;1.17;;
47715;SDS011;33476;50.984;3.538;2023-03-29T06:17:41;3.40;;;1.02;;
47715;SDS011;33476;50.984;3.538;2023-03-29T06:20:10;3.88;;;1.58;;
47715;SDS011;33476;50.984;3.538;2023-03-29T06:22:36;2.38;;;1.42;;
47715;SDS011;33476;50.984;3.538;2023-03-29T06:25:03;4.75;;;1.42;;
47715;SDS011;33476;50.984;3.538;2023-03-29T06:27:29;4.07;;;1.15;;
47715;SDS011;33476;50.984;3.538;2023-03-29T06:29:55;2.95;;;1.05;;
47715;SDS011;33476;50.984;3.538;2023-03-29T06:32:20;5.50;;;1.52;;
47715;SDS011;33476;50.984;3.538;2023-03-29T06:34:46;3.03;;;1.50;;
47715;SDS011;33476;50.984;3.538;2023-03-29T06:37:11;3.60;;;1.38;;
47715;SDS011;33476;50.984;3.538;2023-03-29T06:39:36;5.05;;;1.50;;
47715;SDS011;33476;50.984;3.538;2023-03-29T06:42:02;4.13;;;1.15;;
47715;SDS011;33476;50.984;3.538;2023-03-29T06:44:27;4.25;;;1.52;;
47715;SDS011;33476;50.984;3.538;2023-03-29T06:46:53;3.60;;;1.35;;
47715;SDS011;33476;50.984;3.538;2023-03-29T06:49:18;3.72;;;1.38;;
47715;SDS011;33476;50.984;3.538;2023-03-29T06:51:44;5.07;;;1.50;;
47715;SDS011;33476;50.984;3.538;2023-03-29T06:54:09;3.75;;;1.67;;
47715;SDS011;33476;50.984;3.538;2023-03-29T06:56:35;6.60;;;2.13;;
47715;SDS011;33476;50.984;3.538;2023-03-29T06:59:01;4.30;;;1.52;;
47715;SDS011;33476;50.984;3.538;2023-03-29T07:01:26;4.65;;;1.83;;
47715;SDS011;33476;50.984;3.538;2023-03-29T07:03:52;5.03;;;1.25;;
47715;SDS011;33476;50.984;3.538;2023-03-29T07:06:18;2.75;;;1.25;;
47715;SDS011;33476;50.984;3.538;2023-03-29T07:08:44;6.32;;;1.35;;
47715;SDS011;33476;50.984;3.538;2023-03-29T07:11:14;2.85;;;1.55;;
47715;SDS011;33476;50.984;3.538;2023-03-29T07:13:40;6.60;;;1.90;;
47715;SDS011;33476;50.984;3.538;2023-03-29T07:16:07;2.95;;;1.70;;
47715;SDS011;33476;50.984;3.538;2023-03-29T07:18:36;3.55;;;1.73;;
47715;SDS011;33476;50.984;3.538;2023-03-29T07:21:03;2.78;;;1.27;;
47715;SDS011;33476;50.984;3.538;2023-03-29T07:23:29;4.50;;;1.30;;
47715;SDS011;33476;50.984;3.538;2023-03-29T07:25:55;2.88;;;1.70;;
47715;SDS011;33476;50.984;3.538;2023-03-29T07:28:20;6.97;;;2.17;;
47715;SDS011;33476;50.984;3.538;2023-03-29T07:30:46;4.00;;;1.58;;
47715;SDS011;33476;50.984;3.538;2023-03-29T07:33:11;4.30;;;1.35;;
47715;SDS011;33476;50.984;3.538;2023-03-29T07:35:37;6.43;;;1.95;;
47715;SDS011;33476;50.984;3.538;2023-03-29T07:38:03;8.40;;;1.98;;
47715;SDS011;33476;50.984;3.538;2023-03-29T07:40:29;3.53;;;1.30;;
47715;SDS011;33476;50.984;3.538;2023-03-29T07:42:55;4.10;;;1.83;;
47715;SDS011;33476;50.984;3.538;2023-03-29T07:45:22;3.63;;;1.42;;
47715;SDS011;33476;50.984;3.538;2023-03-29T07:47:49;8.38;;;1.83;;
47715;SDS011;33476;50.984;3.538;2023-03-29T07:50:17;5.65;;;1.98;;
47715;SDS011;33476;50.984;3.538;2023-03-29T07:52:43;4.35;;;1.65;;
47715;SDS011;33476;50.984;3.538;2023-03-29T07:55:09;2.85;;;1.38;;
47715;SDS011;33476;50.984;3.538;2023-03-29T07:57:36;5.00;;;1.88;;
47715;SDS011;33476;50.984;3.538;2023-03-29T08:00:02;5.95;;;1.67;;
47715;SDS011;33476;50.984;3.538;2023-03-29T08:02:35;3.67;;;1.48;;
47715;SDS011;33476;50.984;3.538;2023-03-29T08:05:01;4.53;;;1.50;;
47715;SDS011;33476;50.984;3.538;2023-03-29T08:07:26;5.32;;;1.90;;
47715;SDS011;33476;50.984;3.538;2023-03-29T08:09:51;3.65;;;1.65;;
47715;SDS011;33476;50.984;3.538;2023-03-29T08:12:17;7.97;;;1.65;;
47715;SDS011;33476;50.984;3.538;2023-03-29T08:14:42;4.35;;;1.85;;
47715;SDS011;33476;50.984;3.538;2023-03-29T08:17:08;8.02;;;2.53;;
47715;SDS011;33476;50.984;3.538;2023-03-29T08:19:33;7.07;;;1.63;;
47715;SDS011;33476;50.984;3.538;2023-03-29T08:21:58;3.65;;;1.48;;
47715;SDS011;33476;50.984;3.538;2023-03-29T08:24:24;5.03;;;1.77;;
47715;SDS011;33476;50.984;3.538;2023-03-29T08:26:50;3.85;;;1.63;;
47715;SDS011;33476;50.984;3.538;2023-03-29T08:29:16;2.92;;;1.48;;
47715;SDS011;33476;50.984;3.538;2023-03-29T08:31:41;4.80;;;1.92;;
47715;SDS011;33476;50.984;3.538;2023-03-29T08:34:06;6.25;;;2.20;;
47715;SDS011;33476;50.984;3.538;2023-03-29T08:36:32;6.95;;;2.00;;
47715;SDS011;33476;50.984;3.538;2023-03-29T08:38:57;7.60;;;2.25;;
47715;SDS011;33476;50.984;3.538;2023-03-29T08:46:50;3.45;;;1.67;;
47715;SDS011;33476;50.984;3.538;2023-03-29T08:49:18;6.68;;;2.20;;
47715;SDS011;33476;50.984;3.538;2023-03-29T08:51:46;3.58;;;1.60;;
47715;SDS011;33476;50.984;3.538;2023-03-29T08:54:18;4.28;;;1.73;;
47715;SDS011;33476;50.984;3.538;2023-03-29T08:56:49;7.68;;;2.80;;
47715;SDS011;33476;50.984;3.538;2023-03-29T08:59:19;5.43;;;2.20;;
47715;SDS011;33476;50.984;3.538;2023-03-29T09:01:50;5.68;;;2.25;;
47715;SDS011;33476;50.984;3.538;2023-03-29T09:04:27;7.82;;;2.55;;
47715;SDS011;33476;50.984;3.538;2023-03-29T09:06:57;6.13;;;2.50;;
47715;SDS011;33476;50.984;3.538;2023-03-29T09:09:26;10.43;;;3.22;;
47715;SDS011;33476;50.984;3.538;2023-03-29T09:12:01;6.63;;;2.42;;
47715;SDS011;33476;50.984;3.538;2023-03-29T09:18:06;9.57;;;2.72;;
47715;SDS011;33476;50.984;3.538;2023-03-29T09:20:48;4.47;;;2.53;;
47715;SDS011;33476;50.984;3.538;2023-03-29T09:23:37;5.57;;;2.42;;
47715;SDS011;33476;50.984;3.538;2023-03-29T09:31:55;4.32;;;2.45;;
47715;SDS011;33476;50.984;3.538;2023-03-29T09:34:23;4.90;;;2.95;;
47715;SDS011;33476;50.984;3.538;2023-03-29T09:37:10;9.55;;;2.13;;
47715;SDS011;33476;50.984;3.538;2023-03-29T09:39:46;5.90;;;2.45;;
47715;SDS011;33476;50.984;3.538;2023-03-29T09:42:13;5.32;;;1.77;;
47715;SDS011;33476;50.984;3.538;2023-03-29T09:44:42;6.90;;;2.53;;
47715;SDS011;33476;50.984;3.538;2023-03-29T09:47:16;8.35;;;2.65;;
47715;SDS011;33476;50.984;3.538;2023-03-29T09:49:58;4.50;;;2.60;;
47715;SDS011;33476;50.984;3.538;2023-03-29T09:52:28;4.28;;;2.00;;
47715;SDS011;33476;50.984;3.538;2023-03-29T09:54:54;5.55;;;2.17;;
47715;SDS011;33476;50.984;3.538;2023-03-29T09:57:19;6.20;;;1.88;;
47715;SDS011;33476;50.984;3.538;2023-03-29T09:59:45;7.75;;;2.70;;
47715;SDS011;33476;50.984;3.538;2023-03-29T10:02:12;5.57;;;1.85;;
47715;SDS011;33476;50.984;3.538;2023-03-29T10:04:38;4.82;;;1.90;;
47715;SDS011;33476;50.984;3.538;2023-03-29T10:07:06;7.03;;;2.30;;
47715;SDS011;33476;50.984;3.538;2023-03-29T10:09:33;3.35;;;1.90;;
47715;SDS011;33476;50.984;3.538;2023-03-29T10:11:59;4.63;;;2.08;;
47715;SDS011;33476;50.984;3.538;2023-03-29T10:17:02;5.28;;;2.15;;
47715;SDS011;33476;50.984;3.538;2023-03-29T10:19:33;3.60;;;1.85;;
47715;SDS011;33476;50.984;3.538;2023-03-29T10:22:01;8.57;;;2.33;;
47715;SDS011;33476;50.984;3.538;2023-03-29T10:24:30;5.60;;;1.98;;
47715;SDS011;33476;50.984;3.538;2023-03-29T10:26:57;4.40;;;2.00;;
47715;SDS011;33476;50.984;3.538;2023-03-29T10:29:32;5.68;;;1.98;;
47715;SDS011;33476;50.984;3.538;2023-03-29T10:32:17;4.15;;;2.63;;
47715;SDS011;33476;50.984;3.538;2023-03-29T10:34:52;8.05;;;2.50;;
47715;SDS011;33476;50.984;3.538;2023-03-29T10:37:19;10.18;;;1.92;;
47715;SDS011;33476;50.984;3.538;2023-03-29T10:39:45;13.95;;;2.53;;
47715;SDS011;33476;50.984;3.538;2023-03-29T10:42:13;4.60;;;2.55;;
47715;SDS011;33476;50.984;3.538;2023-03-29T10:44:41;6.68;;;2.28;;
47715;SDS011;33476;50.984;3.538;2023-03-29T10:49:41;5.88;;;2.03;;
47715;SDS011;33476;50.984;3.538;2023-03-29T10:52:11;6.75;;;1.65;;
47715;SDS011;33476;50.984;3.538;2023-03-29T10:54:37;5.95;;;2.03;;
47715;SDS011;33476;50.984;3.538;2023-03-29T10:57:03;4.97;;;1.70;;
47715;SDS011;33476;50.984;3.538;2023-03-29T10:59:45;5.15;;;1.73;;
47715;SDS011;33476;50.984;3.538;2023-03-29T11:02:29;5.07;;;1.75;;
47715;SDS011;33476;50.984;3.538;2023-03-29T11:07:55;5.32;;;1.73;;
47715;SDS011;33476;50.984;3.538;2023-03-29T11:10:30;6.57;;;2.15;;
47715;SDS011;33476;50.984;3.538;2023-03-29T11:13:24;3.42;;;1.52;;
47715;SDS011;33476;50.984;3.538;2023-03-29T11:27:27;5.20;;;1.20;;
47715;SDS011;33476;50.984;3.538;2023-03-29T11:43:11;2.67;;;1.25;;
47715;SDS011;33476;50.984;3.538;2023-03-29T11:45:54;3.45;;;1.15;;
47715;SDS011;33476;50.984;3.538;2023-03-29T11:48:30;3.20;;;0.98;;
47715;SDS011;33476;50.984;3.538;2023-03-29T11:51:17;2.60;;;1.00;;
47715;SDS011;33476;50.984;3.538;2023-03-29T11:53:53;6.28;;;1.02;;
47715;SDS011;33476;50.984;3.538;2023-03-29T11:56:48;2.65;;;0.73;;
47715;SDS011;33476;50.984;3.538;2023-03-29T11:59:34;2.17;;;1.20;;
47715;SDS011;33476;50.984;3.538;2023-03-29T12:04:47;2.13;;;0.70;;
47715;SDS011;33476;50.984;3.538;2023-03-29T12:10:00;3.15;;;0.60;;
47715;SDS011;33476;50.984;3.538;2023-03-29T12:15:21;1.05;;;0.50;;
47715;SDS011;33476;50.984;3.538;2023-03-29T12:17:53;2.20;;;0.40;;
47715;SDS011;33476;50.984;3.538;2023-03-29T12:20:39;1.55;;;0.40;;
47715;SDS011;33476;50.984;3.538;2023-03-29T12:23:05;1.00;;;0.47;;
47715;SDS011;33476;50.984;3.538;2023-03-29T12:31:33;1.83;;;0.40;;
47715;SDS011;33476;50.984;3.538;2023-03-29T12:42:47;2.35;;;1.30;;
47715;SDS011;33476;50.984;3.538;2023-03-29T12:45:19;2.05;;;0.80;;
47715;SDS011;33476;50.984;3.538;2023-03-29T12:47:52;1.98;;;0.68;;
47715;SDS011;33476;50.984;3.538;2023-03-29T12:50:23;2.03;;;0.63;;
47715;SDS011;33476;50.984;3.538;2023-03-29T12:52:52;3.17;;;0.73;;
47715;SDS011;33476;50.984;3.538;2023-03-29T12:55:30;1.92;;;0.55;;
47715;SDS011;33476;50.984;3.538;2023-03-29T12:58:25;3.58;;;1.23;;
47715;SDS011;33476;50.984;3.538;2023-03-29T13:01:36;7.03;;;0.60;;
47715;SDS011;33476;50.984;3.538;2023-03-29T13:04:20;3.08;;;0.77;;
47715;SDS011;33476;50.984;3.538;2023-03-29T13:09:30;8.43;;;0.77;;
47715;SDS011;33476;50.984;3.538;2023-03-29T13:14:35;1.15;;;0.63;;
47715;SDS011;33476;50.984;3.538;2023-03-29T13:17:08;2.97;;;0.70;;
47715;SDS011;33476;50.984;3.538;2023-03-29T13:19:50;2.90;;;1.20;;
47715;SDS011;33476;50.984;3.538;2023-03-29T13:25:18;2.78;;;1.08;;
47715;SDS011;33476;50.984;3.538;2023-03-29T13:36:07;4.95;;;1.30;;
47715;SDS011;33476;50.984;3.538;2023-03-29T13:38:51;3.25;;;2.17;;
47715;SDS011;33476;50.984;3.538;2023-03-29T13:42:04;2.97;;;1.63;;
47715;SDS011;33476;50.984;3.538;2023-03-29T13:46:48;2.88;;;1.60;;
47715;SDS011;33476;50.984;3.538;2023-03-29T13:49:16;2.13;;;1.42;;
47715;SDS011;33476;50.984;3.538;2023-03-29T13:51:59;4.05;;;1.50;;
47715;SDS011;33476;50.984;3.538;2023-03-29T13:57:29;3.65;;;1.70;;
47715;SDS011;33476;50.984;3.538;2023-03-29T14:00:09;4.68;;;2.10;;
47715;SDS011;33476;50.984;3.538;2023-03-29T14:05:19;4.40;;;1.88;;
47715;SDS011;33476;50.984;3.538;2023-03-29T14:07:52;3.38;;;1.85;;
47715;SDS011;33476;50.984;3.538;2023-03-29T14:10:25;4.47;;;2.10;;
47715;SDS011;33476;50.984;3.538;2023-03-29T14:12:58;6.40;;;1.83;;
47715;SDS011;33476;50.984;3.538;2023-03-29T14:15:35;6.85;;;2.42;;
47715;SDS011;33476;50.984;3.538;2023-03-29T14:18:08;6.22;;;2.45;;
47715;SDS011;33476;50.984;3.538;2023-03-29T14:20:36;4.10;;;2.47;;
47715;SDS011;33476;50.984;3.538;2023-03-29T14:23:07;4.00;;;2.50;;
47715;SDS011;33476;50.984;3.538;2023-03-29T14:25:35;7.82;;;2.25;;
47715;SDS011;33476;50.984;3.538;2023-03-29T14:28:11;7.38;;;2.75;;
47715;SDS011;33476;50.984;3.538;2023-03-29T14:30:44;6.65;;;3.03;;
47715;SDS011;33476;50.984;3.538;2023-03-29T14:33:14;5.60;;;3.58;;
47715;SDS011;33476;50.984;3.538;2023-03-29T14:35:49;5.65;;;2.63;;
47715;SDS011;33476;50.984;3.538;2023-03-29T14:38:15;5.72;;;2.50;;
47715;SDS011;33476;50.984;3.538;2023-03-29T14:40:42;6.20;;;2.75;;
47715;SDS011;33476;50.984;3.538;2023-03-29T14:43:10;4.97;;;2.65;;
47715;SDS011;33476;50.984;3.538;2023-03-29T14:45:41;5.10;;;2.80;;
47715;SDS011;33476;50.984;3.538;2023-03-29T14:48:07;5.88;;;2.33;;
47715;SDS011;33476;50.984;3.538;2023-03-29T14:50:36;4.55;;;2.38;;
47715;SDS011;33476;50.984;3.538;2023-03-29T14:53:01;10.00;;;3.67;;
47715;SDS011;33476;50.984;3.538;2023-03-29T14:55:28;4.70;;;2.95;;
47715;SDS011;33476;50.984;3.538;2023-03-29T14:57:55;6.13;;;2.78;;
47715;SDS011;33476;50.984;3.538;2023-03-29T15:00:26;6.80;;;2.70;;
47715;SDS011;33476;50.984;3.538;2023-03-29T15:02:58;9.98;;;2.80;;
47715;SDS011;33476;50.984;3.538;2023-03-29T15:05:29;8.07;;;2.55;;
47715;SDS011;33476;50.984;3.538;2023-03-29T15:07:57;5.63;;;2.88;;
47715;SDS011;33476;50.984;3.538;2023-03-29T15:10:25;6.28;;;2.60;;
47715;SDS011;33476;50.984;3.538;2023-03-29T15:12:54;10.80;;;3.28;;
47715;SDS011;33476;50.984;3.538;2023-03-29T15:15:19;5.22;;;2.88;;
47715;SDS011;33476;50.984;3.538;2023-03-29T15:17:48;4.05;;;2.58;;
47715;SDS011;33476;50.984;3.538;2023-03-29T15:20:15;6.15;;;2.58;;
47715;SDS011;33476;50.984;3.538;2023-03-29T15:23:01;5.22;;;2.70;;
47715;SDS011;33476;50.984;3.538;2023-03-29T15:25:36;5.85;;;2.92;;
47715;SDS011;33476;50.984;3.538;2023-03-29T15:28:21;7.10;;;2.80;;
47715;SDS011;33476;50.984;3.538;2023-03-29T15:30:55;7.90;;;2.90;;
47715;SDS011;33476;50.984;3.538;2023-03-29T15:33:22;7.90;;;3.00;;
47715;SDS011;33476;50.984;3.538;2023-03-29T15:35:49;6.53;;;2.78;;
47715;SDS011;33476;50.984;3.538;2023-03-29T15:38:16;5.28;;;2.75;;
47715;SDS011;33476;50.984;3.538;2023-03-29T15:40:42;8.93;;;3.13;;
47715;SDS011;33476;50.984;3.538;2023-03-29T15:43:07;9.52;;;3.30;;
47715;SDS011;33476;50.984;3.538;2023-03-29T15:45:33;8.15;;;2.97;;
47715;SDS011;33476;50.984;3.538;2023-03-29T15:47:58;5.07;;;3.05;;
47715;SDS011;33476;50.984;3.538;2023-03-29T15:50:28;5.47;;;2.20;;
47715;SDS011;33476;50.984;3.538;2023-03-29T15:52:54;6.03;;;2.95;;
47715;SDS011;33476;50.984;3.538;2023-03-29T15:55:23;7.63;;;3.00;;
47715;SDS011;33476;50.984;3.538;2023-03-29T15:57:50;8.20;;;3.05;;
47715;SDS011;33476;50.984;3.538;2023-03-29T16:00:18;9.45;;;2.72;;
47715;SDS011;33476;50.984;3.538;2023-03-29T16:02:45;7.55;;;2.95;;
47715;SDS011;33476;50.984;3.538;2023-03-29T16:05:10;9.48;;;2.95;;
47715;SDS011;33476;50.984;3.538;2023-03-29T16:07:37;6.22;;;2.90;;
47715;SDS011;33476;50.984;3.538;2023-03-29T16:10:02;8.05;;;3.50;;
47715;SDS011;33476;50.984;3.538;2023-03-29T16:12:28;10.35;;;2.80;;
47715;SDS011;33476;50.984;3.538;2023-03-29T16:14:53;5.10;;;2.90;;
47715;SDS011;33476;50.984;3.538;2023-03-29T16:17:18;9.85;;;3.40;;
47715;SDS011;33476;50.984;3.538;2023-03-29T16:19:44;7.30;;;2.80;;
47715;SDS011;33476;50.984;3.538;2023-03-29T16:22:09;5.93;;;2.67;;
47715;SDS011;33476;50.984;3.538;2023-03-29T16:24:34;7.13;;;2.47;;
47715;SDS011;33476;50.984;3.538;2023-03-29T16:27:00;11.75;;;2.67;;
47715;SDS011;33476;50.984;3.538;2023-03-29T16:29:26;14.52;;;3.28;;
47715;SDS011;33476;50.984;3.538;2023-03-29T16:31:52;8.27;;;2.58;;
47715;SDS011;33476;50.984;3.538;2023-03-29T16:34:18;7.05;;;2.50;;
47715;SDS011;33476;50.984;3.538;2023-03-29T16:36:45;12.43;;;2.72;;
47715;SDS011;33476;50.984;3.538;2023-03-29T16:39:11;5.57;;;2.45;;
47715;SDS011;33476;50.984;3.538;2023-03-29T16:41:37;7.75;;;2.70;;
47715;SDS011;33476;50.984;3.538;2023-03-29T16:44:03;10.00;;;2.92;;
47715;SDS011;33476;50.984;3.538;2023-03-29T16:46:29;8.45;;;3.08;;
47715;SDS011;33476;50.984;3.538;2023-03-29T16:48:55;7.95;;;2.33;;
47715;SDS011;33476;50.984;3.538;2023-03-29T16:51:22;6.20;;;2.63;;
47715;SDS011;33476;50.984;3.538;2023-03-29T16:53:48;8.30;;;2.60;;
47715;SDS011;33476;50.984;3.538;2023-03-29T16:56:15;3.83;;;1.92;;